Dunkirk, New York
Current Conditions -  °F | °C
As of 3:53 PM on Saturday 20 Dec 2014 (Local Time) from KDKK Reporting Station
Overcast Overcast  
Wind Chill: -4°   Ceiling: 1800
Heat Index: -1°   Visibility: 10mi
Dew Point: -5°   Wind: 5mph
Humidity: 75%   Direction: 260°W
Pressure: 30.25"   Gusts: NA
Location:  42.49°N, 79.34°W
Report Text: KDKK 202053Z AUTO 26004KT 10SM OVC018 M01/M05 A3025 RMK AO2 SLP253 T10111050 55003 $
Loading
Personal Weather Stations






























Interactive Weather Map New forecast layout! Learn more

10-Day Weather Forecast

Advertisements
Track Severe Weather on mobile